Terminal Aerodrome Forecast
Issued by NWS

Home | Current Version | Previous Version | Text Only | Print | Product List | Glossary On
Versions: 1 2 3 4 5 6 7 8 9 10 11 12 13 14
268
FTUS44 KEPZ 181720
TAFDMN
TAF
KDMN 181720Z 1818/1918 08007KT P6SM SCT100 SCT200
     FM190300 23006KT P6SM SCT100 BKN200
     FM191200 27010KT P6SM FEW060 SCT100 BKN150=

USA.gov is the U.S. government's official web portal to all federal, state and local government web resources and services.